createdAt,value
2022-09-17T00:01:06.308Z,10.80
2022-09-17T00:03:34.430Z,10.80
2022-09-17T00:06:01.472Z,10.80
2022-09-17T00:08:28.135Z,10.80
2022-09-17T00:10:54.818Z,10.80
2022-09-17T00:13:21.489Z,10.80
2022-09-17T00:15:48.468Z,10.70
2022-09-17T00:18:15.126Z,10.70
2022-09-17T00:20:42.250Z,10.80
2022-09-17T00:23:09.601Z,10.70
2022-09-17T00:25:36.285Z,10.70
2022-09-17T00:28:02.976Z,10.70
2022-09-17T00:30:29.659Z,10.70
2022-09-17T00:32:57.874Z,10.70
2022-09-17T00:35:24.594Z,10.70
2022-09-17T00:37:51.212Z,10.70
2022-09-17T00:40:17.923Z,10.60
2022-09-17T00:42:45.376Z,10.60
2022-09-17T00:45:12.087Z,10.60
2022-09-17T00:47:39.667Z,10.60
2022-09-17T00:50:06.351Z,10.60
2022-09-17T00:52:33.039Z,10.60
2022-09-17T00:54:59.739Z,10.50
2022-09-17T00:57:26.405Z,10.50
2022-09-17T00:59:53.125Z,10.50
2022-09-17T01:02:19.794Z,10.50
2022-09-17T01:04:46.539Z,10.50
2022-09-17T01:07:13.226Z,10.50
2022-09-17T01:09:39.884Z,10.50
2022-09-17T01:12:06.573Z,10.40
2022-09-17T01:14:33.358Z,10.50
2022-09-17T01:17:00.004Z,10.40
2022-09-17T01:19:27.189Z,10.40
2022-09-17T01:21:53.893Z,10.40
2022-09-17T01:24:20.550Z,10.40
2022-09-17T01:26:47.179Z,10.40
2022-09-17T01:29:13.851Z,10.40
2022-09-17T01:31:40.549Z,10.40
2022-09-17T01:34:07.271Z,10.40
2022-09-17T01:36:34.005Z,10.40
2022-09-17T01:39:00.691Z,10.40
2022-09-17T01:41:27.478Z,10.30
2022-09-17T01:43:54.292Z,10.30
2022-09-17T01:46:21.058Z,10.30
2022-09-17T01:48:47.829Z,10.30
2022-09-17T01:51:14.864Z,10.30
2022-09-17T01:53:41.573Z,10.20
2022-09-17T01:56:08.237Z,10.20
2022-09-17T01:58:35.567Z,10.20
2022-09-17T02:01:03.563Z,10.20
2022-09-17T02:03:30.633Z,10.10
2022-09-17T02:05:57.270Z,10.10
2022-09-17T02:08:23.960Z,10.10
2022-09-17T02:10:50.652Z,10.00
2022-09-17T02:13:17.333Z,10.00
2022-09-17T02:15:44.044Z,10.00
2022-09-17T02:18:10.760Z,9.90
2022-09-17T02:20:37.400Z,9.80
2022-09-17T02:23:04.092Z,9.80
2022-09-17T02:25:31.017Z,9.80
2022-09-17T02:27:58.606Z,9.70
2022-09-17T02:30:25.260Z,9.60
2022-09-17T02:32:52.036Z,9.60
2022-09-17T02:35:19.601Z,9.60
2022-09-17T02:37:46.369Z,9.50
2022-09-17T02:40:13.071Z,9.50
2022-09-17T02:42:39.820Z,9.40
2022-09-17T02:45:06.464Z,9.40
2022-09-17T02:47:33.285Z,9.30
2022-09-17T02:50:00.625Z,9.30
2022-09-17T02:52:27.463Z,9.20
2022-09-17T02:54:54.359Z,9.20
2022-09-17T02:57:21.454Z,9.20
2022-09-17T02:59:48.206Z,9.10
2022-09-17T03:02:15.027Z,9.10
2022-09-17T03:04:41.719Z,9.10
2022-09-17T03:07:09.097Z,9.00
2022-09-17T03:09:35.744Z,9.00
2022-09-17T03:12:02.963Z,9.00
2022-09-17T03:14:29.590Z,8.90
2022-09-17T03:16:56.292Z,8.90
2022-09-17T03:19:22.973Z,8.90
2022-09-17T03:21:49.897Z,8.90
2022-09-17T03:24:16.569Z,8.90
2022-09-17T03:26:43.980Z,8.80
2022-09-17T03:29:10.622Z,8.80
2022-09-17T03:31:37.404Z,8.80
2022-09-17T03:34:04.110Z,8.80
2022-09-17T03:36:30.834Z,8.80
2022-09-17T03:38:57.508Z,8.80
2022-09-17T03:41:24.216Z,8.80
2022-09-17T03:43:50.864Z,8.70
2022-09-17T03:46:17.709Z,8.70
2022-09-17T03:48:44.553Z,8.70
2022-09-17T03:51:11.246Z,8.60
2022-09-17T03:53:37.897Z,8.60
2022-09-17T03:56:04.572Z,8.60
2022-09-17T03:58:31.198Z,8.60
2022-09-17T04:00:58.174Z,8.60
2022-09-17T04:03:24.822Z,8.50
2022-09-17T04:05:51.553Z,8.60
2022-09-17T04:08:18.200Z,8.50
2022-09-17T04:10:45.038Z,8.50
2022-09-17T04:13:11.695Z,8.50
2022-09-17T04:15:38.430Z,8.40
2022-09-17T04:18:05.117Z,8.40
2022-09-17T04:20:31.805Z,8.40
2022-09-17T04:22:58.459Z,8.40
2022-09-17T04:25:25.241Z,8.40
2022-09-17T04:27:51.902Z,8.40
2022-09-17T04:30:18.673Z,8.30
2022-09-17T04:32:45.397Z,8.30
2022-09-17T04:35:12.118Z,8.20
2022-09-17T04:37:38.865Z,8.20
2022-09-17T04:40:07.939Z,8.20
2022-09-17T04:42:34.923Z,8.20
2022-09-17T04:45:01.611Z,8.20
2022-09-17T04:47:28.283Z,8.20
2022-09-17T04:49:54.999Z,8.10
2022-09-17T04:52:21.658Z,8.10
2022-09-17T04:54:48.341Z,8.00
2022-09-17T04:57:14.975Z,8.00
2022-09-17T04:59:41.652Z,8.00
2022-09-17T05:02:08.403Z,8.00
2022-09-17T05:04:35.128Z,8.00
2022-09-17T05:07:02.845Z,8.00
2022-09-17T05:09:29.528Z,8.00
2022-09-17T05:11:56.167Z,8.00
2022-09-17T05:14:22.894Z,8.00
2022-09-17T05:16:49.520Z,7.90
2022-09-17T05:19:16.262Z,7.90
2022-09-17T05:21:42.945Z,7.90
2022-09-17T05:24:09.639Z,7.90
2022-09-17T05:26:36.313Z,7.80
2022-09-17T05:29:02.994Z,7.80
2022-09-17T05:31:29.672Z,7.80
2022-09-17T05:33:56.427Z,7.80
2022-09-17T05:36:23.065Z,7.80
2022-09-17T05:38:50.374Z,7.80
2022-09-17T05:41:17.025Z,7.80
2022-09-17T05:43:43.803Z,7.70
2022-09-17T05:46:11.269Z,7.70
2022-09-17T05:48:38.021Z,7.70
2022-09-17T05:51:04.698Z,7.70
2022-09-17T05:53:31.391Z,7.70
2022-09-17T05:55:58.022Z,7.70
2022-09-17T05:58:24.922Z,7.70
2022-09-17T06:00:51.638Z,7.70
2022-09-17T06:03:18.349Z,7.70
2022-09-17T06:05:45.043Z,7.70
2022-09-17T06:08:11.730Z,7.70
2022-09-17T06:10:38.579Z,7.70
2022-09-17T06:13:05.478Z,7.70
2022-09-17T06:15:32.115Z,7.70
2022-09-17T06:17:58.816Z,7.70
2022-09-17T06:20:25.487Z,7.70
2022-09-17T06:22:52.228Z,7.80
2022-09-17T06:25:18.999Z,7.80
2022-09-17T06:27:45.718Z,7.90
2022-09-17T06:30:12.402Z,7.80
2022-09-17T06:32:39.115Z,7.90
2022-09-17T06:35:05.748Z,7.90
2022-09-17T06:37:32.436Z,7.90
2022-09-17T06:40:02.063Z,7.90
2022-09-17T06:42:28.810Z,7.90
2022-09-17T06:44:59.224Z,7.90
2022-09-17T06:47:26.529Z,8.00
2022-09-17T06:49:54.595Z,8.00
2022-09-17T06:52:21.324Z,8.00
2022-09-17T06:54:47.956Z,8.10
2022-09-17T06:57:14.967Z,8.10
2022-09-17T06:59:42.991Z,8.20
2022-09-17T07:02:09.668Z,8.30
2022-09-17T07:04:36.443Z,8.30
2022-09-17T07:07:03.473Z,8.30
2022-09-17T07:09:30.112Z,8.40
2022-09-17T07:11:57.495Z,8.40
2022-09-17T07:14:24.912Z,8.50
2022-09-17T07:16:51.801Z,8.50
2022-09-17T07:19:18.488Z,8.60
2022-09-17T07:21:45.153Z,8.60
2022-09-17T07:24:11.823Z,8.70
2022-09-17T07:26:38.625Z,8.80
2022-09-17T07:29:05.232Z,8.80
2022-09-17T07:31:31.965Z,8.90
2022-09-17T07:33:59.418Z,9.00
2022-09-17T07:36:26.102Z,9.00
2022-09-17T07:38:52.743Z,9.10
2022-09-17T07:41:19.495Z,9.20
2022-09-17T07:43:46.187Z,9.20
2022-09-17T07:46:13.067Z,9.30
2022-09-17T07:48:39.787Z,9.40
2022-09-17T07:51:06.840Z,9.40
2022-09-17T07:53:33.470Z,9.50
2022-09-17T07:56:00.171Z,9.60
2022-09-17T07:58:26.847Z,9.60
2022-09-17T08:00:53.533Z,9.70
2022-09-17T08:03:20.279Z,9.70
2022-09-17T08:05:48.159Z,9.80
2022-09-17T08:08:17.705Z,9.80
2022-09-17T08:10:47.673Z,9.90
2022-09-17T08:13:14.339Z,10.00
2022-09-17T08:15:41.008Z,10.00
2022-09-17T08:18:07.707Z,10.10
2022-09-17T08:20:34.429Z,10.10
2022-09-17T08:23:01.112Z,10.20
2022-09-17T08:25:27.900Z,10.30
2022-09-17T08:27:55.007Z,10.30
2022-09-17T08:30:21.738Z,10.40
2022-09-17T08:32:48.453Z,10.40
2022-09-17T08:35:16.447Z,10.50
2022-09-17T08:37:43.135Z,10.60
2022-09-17T08:40:10.419Z,10.80
2022-09-17T08:42:37.154Z,10.90
2022-09-17T08:45:03.904Z,11.00
2022-09-17T08:47:31.257Z,11.10
2022-09-17T08:49:58.017Z,11.20
2022-09-17T08:52:24.950Z,11.20
2022-09-17T08:54:51.704Z,11.30
2022-09-17T08:57:18.464Z,11.40
2022-09-17T08:59:45.176Z,11.50
2022-09-17T09:02:11.929Z,11.60
2022-09-17T09:04:38.774Z,11.70
2022-09-17T09:07:05.489Z,11.80
2022-09-17T09:09:32.168Z,11.80
2022-09-17T09:11:59.678Z,11.90
2022-09-17T09:14:26.567Z,12.00
2022-09-17T09:16:53.268Z,12.10
2022-09-17T09:19:20.000Z,12.10
2022-09-17T09:21:46.623Z,12.20
2022-09-17T09:24:13.328Z,12.20
2022-09-17T09:26:39.962Z,12.30
2022-09-17T09:29:06.802Z,12.30
2022-09-17T09:31:33.621Z,12.30
2022-09-17T09:34:00.405Z,12.40
2022-09-17T09:36:27.061Z,12.40
2022-09-17T09:38:53.861Z,12.50
2022-09-17T09:41:20.586Z,12.50
2022-09-17T09:44:03.200Z,12.50
2022-09-17T09:46:31.086Z,12.50
2022-09-17T09:48:57.790Z,12.60
2022-09-17T09:51:24.477Z,12.70
2022-09-17T09:53:51.245Z,12.70
2022-09-17T09:56:18.067Z,12.80
2022-09-17T09:58:44.731Z,12.80
2022-09-17T10:01:11.412Z,12.80
2022-09-17T10:03:38.972Z,12.90
2022-09-17T10:06:05.670Z,12.90
2022-09-17T10:08:32.340Z,13.00
2022-09-17T10:10:59.239Z,13.00
2022-09-17T10:13:25.973Z,13.10
2022-09-17T10:15:52.804Z,13.10
2022-09-17T10:18:19.556Z,13.20
2022-09-17T10:20:46.232Z,13.30
2022-09-17T10:23:12.913Z,13.40
2022-09-17T10:25:39.580Z,13.40
2022-09-17T10:28:06.281Z,13.50
2022-09-17T10:30:32.997Z,13.50
2022-09-17T10:32:59.643Z,13.60
2022-09-17T10:35:26.698Z,13.60
2022-09-17T10:37:53.349Z,13.60
2022-09-17T10:40:20.242Z,13.60
2022-09-17T10:42:47.036Z,13.60
2022-09-17T10:45:13.741Z,13.70
2022-09-17T10:47:40.393Z,13.70
2022-09-17T10:50:07.110Z,13.70
2022-09-17T10:52:34.345Z,13.70
2022-09-17T10:55:01.110Z,13.80
2022-09-17T10:57:27.751Z,13.90
2022-09-17T10:59:54.627Z,13.90
2022-09-17T11:02:21.370Z,14.00
2022-09-17T11:04:48.192Z,14.00
2022-09-17T11:07:15.204Z,14.00
2022-09-17T11:09:41.853Z,14.00
2022-09-17T11:12:08.492Z,14.00
2022-09-17T11:14:37.847Z,14.00
2022-09-17T11:17:04.536Z,14.10
2022-09-17T11:19:31.229Z,14.20
2022-09-17T11:21:57.904Z,14.20
2022-09-17T11:24:24.555Z,14.30
2022-09-17T11:26:51.262Z,14.30
2022-09-17T11:29:17.952Z,14.30
2022-09-17T11:31:44.705Z,14.30
2022-09-17T11:34:11.535Z,14.50
2022-09-17T11:36:38.161Z,14.50
2022-09-17T11:39:05.103Z,14.50
2022-09-17T11:41:31.756Z,14.50
2022-09-17T11:43:58.526Z,14.60
2022-09-17T11:46:25.307Z,14.60
2022-09-17T11:48:52.104Z,14.60
2022-09-17T11:51:18.820Z,14.70
2022-09-17T11:53:45.543Z,14.80
2022-09-17T11:56:12.250Z,14.70
2022-09-17T11:58:38.933Z,14.80
2022-09-17T12:01:06.013Z,14.80
2022-09-17T12:03:32.701Z,14.80
2022-09-17T12:05:59.440Z,14.80
2022-09-17T12:08:26.584Z,14.90
2022-09-17T12:10:53.594Z,14.90
2022-09-17T12:13:20.717Z,14.90
2022-09-17T12:15:52.370Z,14.90
2022-09-17T12:18:31.612Z,15.00
2022-09-17T12:20:59.498Z,15.00
2022-09-17T12:23:26.172Z,15.00
2022-09-17T12:25:52.940Z,15.00
2022-09-17T12:28:19.626Z,15.00
2022-09-17T12:30:46.301Z,15.10
2022-09-17T12:33:12.999Z,15.10
2022-09-17T12:36:03.523Z,15.10
2022-09-17T12:38:26.432Z,15.10
2022-09-17T12:40:53.102Z,15.10
2022-09-17T12:43:20.151Z,15.00
2022-09-17T12:45:50.718Z,15.10
2022-09-17T12:48:17.642Z,15.10
2022-09-17T12:50:44.292Z,15.10
2022-09-17T12:53:11.023Z,15.10
2022-09-17T12:55:37.682Z,15.00
2022-09-17T12:58:04.508Z,15.10
2022-09-17T13:00:31.380Z,15.10
2022-09-17T13:02:58.237Z,15.10
2022-09-17T13:05:24.916Z,15.20
2022-09-17T13:07:52.673Z,15.20
2022-09-17T13:10:19.399Z,15.20
2022-09-17T13:12:46.203Z,15.30
2022-09-17T13:15:12.974Z,15.30
2022-09-17T13:17:39.688Z,15.40
2022-09-17T13:20:06.450Z,15.40
2022-09-17T13:22:34.368Z,15.40
2022-09-17T13:25:01.029Z,15.40
2022-09-17T13:27:27.848Z,15.50
2022-09-17T13:29:54.508Z,15.50
2022-09-17T13:32:21.196Z,15.60
2022-09-17T13:34:47.852Z,15.50
2022-09-17T13:37:15.701Z,15.40
2022-09-17T13:39:42.369Z,15.50
2022-09-17T13:42:09.520Z,15.50
2022-09-17T13:44:36.287Z,15.50
2022-09-17T13:47:03.100Z,15.50
2022-09-17T13:49:29.799Z,15.50
2022-09-17T13:51:56.528Z,15.60
2022-09-17T13:54:23.292Z,15.50
2022-09-17T13:56:50.042Z,15.60
2022-09-17T13:59:16.875Z,15.60
2022-09-17T14:01:43.568Z,15.60
2022-09-17T14:04:10.186Z,15.60
2022-09-17T14:06:36.923Z,15.60
2022-09-17T14:09:03.608Z,15.60
2022-09-17T14:11:30.447Z,15.60
2022-09-17T14:13:57.122Z,15.70
2022-09-17T14:16:23.864Z,15.80
2022-09-17T14:18:50.567Z,15.80
2022-09-17T14:21:17.343Z,15.90
2022-09-17T14:23:43.986Z,15.90
2022-09-17T14:26:10.711Z,15.90
2022-09-17T14:28:37.383Z,15.90
2022-09-17T14:31:04.301Z,15.80
2022-09-17T14:33:32.011Z,15.80
2022-09-17T14:35:58.693Z,15.80
2022-09-17T14:38:25.430Z,15.90
2022-09-17T14:40:52.174Z,15.90
2022-09-17T14:43:18.955Z,15.90
2022-09-17T14:45:45.679Z,15.90
2022-09-17T14:48:12.317Z,15.90
2022-09-17T14:50:39.030Z,15.90
2022-09-17T14:53:05.699Z,15.90
2022-09-17T14:55:32.401Z,16.00
2022-09-17T14:57:59.098Z,16.00
2022-09-17T15:00:26.038Z,16.10
2022-09-17T15:02:52.881Z,16.10
2022-09-17T15:05:19.839Z,16.10
2022-09-17T15:07:46.475Z,16.10
2022-09-17T15:10:13.178Z,16.10
2022-09-17T15:12:39.821Z,16.10
2022-09-17T15:15:06.549Z,16.10
2022-09-17T15:17:33.461Z,16.10
2022-09-17T15:20:00.857Z,16.20
2022-09-17T15:22:27.487Z,16.20
2022-09-17T15:24:54.326Z,16.20
2022-09-17T15:27:22.301Z,16.30
2022-09-17T15:29:48.990Z,16.30
2022-09-17T15:32:15.702Z,16.20
2022-09-17T15:34:42.454Z,16.20
2022-09-17T15:37:09.092Z,16.20
2022-09-17T15:39:35.836Z,16.20
2022-09-17T15:42:02.484Z,16.30
2022-09-17T15:44:30.733Z,16.30
2022-09-17T15:46:58.088Z,16.30
2022-09-17T15:49:24.833Z,16.30
2022-09-17T15:51:53.070Z,16.30
2022-09-17T15:54:19.788Z,16.30
2022-09-17T15:56:46.539Z,16.20
2022-09-17T15:59:13.405Z,16.20
2022-09-17T16:01:40.242Z,16.20
2022-09-17T16:04:07.004Z,16.20
2022-09-17T16:06:33.660Z,16.30
2022-09-17T16:09:00.878Z,16.30
2022-09-17T16:11:27.525Z,16.20
2022-09-17T16:13:54.231Z,16.20
2022-09-17T16:16:21.063Z,16.20
2022-09-17T16:18:47.884Z,16.20
2022-09-17T16:21:14.601Z,16.30
2022-09-17T16:23:41.285Z,16.30
2022-09-17T16:26:07.979Z,16.20
2022-09-17T16:28:34.701Z,16.20
2022-09-17T16:31:01.392Z,16.20
2022-09-17T16:33:28.320Z,16.20
2022-09-17T16:35:54.998Z,16.20
2022-09-17T16:38:21.730Z,16.10
2022-09-17T16:40:48.443Z,16.10
2022-09-17T16:43:15.211Z,16.20
2022-09-17T16:45:41.881Z,16.40
2022-09-17T16:48:08.589Z,16.50
2022-09-17T16:50:35.915Z,16.50
2022-09-17T16:53:05.357Z,16.50
2022-09-17T16:55:32.394Z,16.50
2022-09-17T16:57:59.183Z,16.40
2022-09-17T17:00:25.975Z,16.30
2022-09-17T17:02:52.699Z,16.20
2022-09-17T17:05:19.513Z,16.10
2022-09-17T17:07:46.381Z,16.10
2022-09-17T17:10:13.073Z,16.00
2022-09-17T17:12:39.701Z,16.00
2022-09-17T17:15:06.539Z,16.10
2022-09-17T17:17:35.684Z,16.10
2022-09-17T17:20:04.868Z,16.00
2022-09-17T17:22:31.554Z,16.00
2022-09-17T17:24:58.235Z,15.90
2022-09-17T17:27:24.917Z,15.80
2022-09-17T17:29:52.336Z,15.80
2022-09-17T17:32:18.969Z,15.80
2022-09-17T17:34:45.738Z,15.80
2022-09-17T17:37:14.273Z,15.70
2022-09-17T17:39:41.159Z,15.70
2022-09-17T17:42:07.797Z,15.60
2022-09-17T17:44:34.527Z,15.60
2022-09-17T17:47:01.318Z,15.50
2022-09-17T17:49:28.070Z,15.50
2022-09-17T17:51:54.744Z,15.40
2022-09-17T17:54:22.095Z,15.40
2022-09-17T17:56:48.950Z,15.30
2022-09-17T17:59:15.651Z,15.30
2022-09-17T18:01:42.373Z,15.20
2022-09-17T18:04:09.160Z,15.20
2022-09-17T18:06:35.855Z,15.10
2022-09-17T18:09:02.562Z,15.10
2022-09-17T18:11:29.246Z,15.00
2022-09-17T18:13:56.006Z,15.00
2022-09-17T18:16:22.703Z,14.90
2022-09-17T18:18:49.426Z,14.80
2022-09-17T18:21:16.272Z,14.80
2022-09-17T18:23:43.196Z,14.70
2022-09-17T18:26:09.896Z,14.70
2022-09-17T18:28:36.665Z,14.60
2022-09-17T18:31:03.350Z,14.60
2022-09-17T18:33:30.107Z,14.50
2022-09-17T18:35:57.285Z,14.50
2022-09-17T18:38:24.131Z,14.40
2022-09-17T18:40:50.883Z,14.40
2022-09-17T18:43:17.616Z,14.40
2022-09-17T18:45:44.397Z,14.30
2022-09-17T18:48:11.373Z,14.30
2022-09-17T18:50:38.127Z,14.20
2022-09-17T18:53:04.796Z,14.20
2022-09-17T18:55:31.532Z,14.10
2022-09-17T18:57:58.289Z,14.10
2022-09-17T19:00:25.074Z,14.10
2022-09-17T19:02:51.828Z,14.00
2022-09-17T19:05:18.498Z,14.00
2022-09-17T19:07:45.478Z,13.90
2022-09-17T19:10:12.684Z,13.90
2022-09-17T19:12:39.473Z,13.80
2022-09-17T19:15:06.311Z,13.80
2022-09-17T19:17:33.060Z,13.70
2022-09-17T19:19:59.768Z,13.70
2022-09-17T19:22:26.419Z,13.60
2022-09-17T19:24:53.114Z,13.60
2022-09-17T19:27:19.838Z,13.50
2022-09-17T19:29:46.533Z,13.40
2022-09-17T19:32:13.495Z,13.40
2022-09-17T19:34:40.236Z,13.30
2022-09-17T19:37:06.941Z,13.20
2022-09-17T19:39:34.178Z,13.20
2022-09-17T19:42:00.914Z,13.10
2022-09-17T19:44:27.671Z,13.00
2022-09-17T19:46:54.766Z,12.90
2022-09-17T19:49:21.524Z,12.90
2022-09-17T19:51:48.307Z,12.80
2022-09-17T19:54:14.994Z,12.70
2022-09-17T19:56:41.691Z,12.70
2022-09-17T19:59:08.386Z,12.70
2022-09-17T20:01:35.195Z,12.60
2022-09-17T20:04:02.007Z,12.60
2022-09-17T20:06:28.695Z,12.50
2022-09-17T20:08:56.052Z,12.50
2022-09-17T20:11:22.772Z,12.50
2022-09-17T20:13:49.547Z,12.40
2022-09-17T20:16:16.344Z,12.40
2022-09-17T20:18:44.102Z,12.40
2022-09-17T20:21:10.849Z,12.30
2022-09-17T20:23:37.560Z,12.30
2022-09-17T20:26:04.289Z,12.30
2022-09-17T20:28:31.074Z,12.30
2022-09-17T20:30:57.795Z,12.20
2022-09-17T20:33:24.682Z,12.10
2022-09-17T20:35:51.426Z,12.10
2022-09-17T20:39:09.419Z,12.10
2022-09-17T20:41:04.898Z,12.00
2022-09-17T20:43:31.566Z,11.90
2022-09-17T20:45:58.273Z,11.90
2022-09-17T20:48:25.136Z,11.90
2022-09-17T20:50:51.861Z,11.80
2022-09-17T20:53:18.579Z,11.80
2022-09-17T20:55:45.301Z,11.70
2022-09-17T20:58:11.980Z,11.70
2022-09-17T21:00:41.709Z,11.70
2022-09-17T21:03:09.942Z,11.70
2022-09-17T21:05:36.603Z,11.60
2022-09-17T21:08:03.297Z,11.60
2022-09-17T21:10:29.968Z,11.60
2022-09-17T21:12:57.875Z,11.60
2022-09-17T21:15:24.663Z,11.50
2022-09-17T21:17:51.455Z,11.50
2022-09-17T21:20:18.106Z,11.50
2022-09-17T21:22:44.813Z,11.50
2022-09-17T21:25:11.498Z,11.50
2022-09-17T21:27:38.182Z,11.50
2022-09-17T21:30:09.469Z,11.40
2022-09-17T21:32:37.840Z,11.40
2022-09-17T21:35:04.558Z,11.40
2022-09-17T21:37:31.299Z,11.40
2022-09-17T21:39:58.051Z,11.30
2022-09-17T21:42:24.776Z,11.20
2022-09-17T21:44:51.461Z,11.20
2022-09-17T21:47:18.204Z,11.20
2022-09-17T21:49:44.989Z,11.10
2022-09-17T21:52:11.691Z,11.10
2022-09-17T21:54:38.435Z,11.10
2022-09-17T21:57:05.171Z,11.00
2022-09-17T21:59:31.861Z,11.00
2022-09-17T22:01:58.975Z,11.00
2022-09-17T22:04:26.838Z,11.00
2022-09-17T22:06:54.774Z,10.90
2022-09-17T22:09:21.648Z,10.90
2022-09-17T22:11:48.397Z,10.90
2022-09-17T22:14:15.272Z,10.90
2022-09-17T22:16:42.179Z,10.80
2022-09-17T22:19:08.882Z,10.80
2022-09-17T22:21:36.069Z,10.80
2022-09-17T22:24:02.837Z,10.80
2022-09-17T22:26:29.758Z,10.80
2022-09-17T22:28:56.422Z,10.80
2022-09-17T22:31:23.260Z,10.80
2022-09-17T22:33:50.057Z,10.80
2022-09-17T22:36:16.769Z,10.80
2022-09-17T22:38:43.452Z,10.80
2022-09-17T22:41:10.128Z,10.80
2022-09-17T22:43:36.873Z,10.70
2022-09-17T22:46:03.572Z,10.70
2022-09-17T22:48:30.207Z,10.70
2022-09-17T22:50:56.914Z,10.70
2022-09-17T22:53:23.663Z,10.80
2022-09-17T22:55:50.371Z,10.70
2022-09-17T22:58:17.195Z,10.70
2022-09-17T23:00:43.856Z,10.70
2022-09-17T23:03:10.613Z,10.70
2022-09-17T23:05:37.380Z,10.80
2022-09-17T23:08:04.110Z,10.80
2022-09-17T23:10:32.050Z,10.80
2022-09-17T23:13:02.493Z,10.70
2022-09-17T23:15:34.448Z,10.80
2022-09-17T23:18:01.156Z,10.80
2022-09-17T23:20:27.845Z,10.90
2022-09-17T23:22:54.558Z,10.90
2022-09-17T23:25:21.343Z,10.90
2022-09-17T23:27:48.028Z,11.00
2022-09-17T23:30:14.658Z,11.00
2022-09-17T23:32:41.350Z,11.00
2022-09-17T23:35:08.012Z,11.00
2022-09-17T23:37:34.698Z,11.00
2022-09-17T23:40:01.588Z,11.00
2022-09-17T23:42:28.292Z,11.00
2022-09-17T23:44:54.997Z,11.00
2022-09-17T23:47:21.749Z,11.00
2022-09-17T23:49:48.718Z,11.00
2022-09-17T23:52:15.405Z,11.00
2022-09-17T23:54:42.080Z,11.00
2022-09-17T23:57:08.766Z,11.00
2022-09-17T23:59:35.624Z,11.00
